Time;durP1;ratioP1;P1;durP2;ratioP2;P2;SDS_P1;SDS_P2;PMS_P1;PMS_P2;Temp;Humidity;BMP_temperature;BMP_pressure;BME280_temperature;BME280_humidity;BME280_pressure;Samples;Min_cycle;Max_cycle;Signal;HPM_P1;HPM_P2
2021/09/27 00:01:57;;;;;;;27.17;18.80;;;;;;;15.91;94.25;100632.28;20643838;28;20073;-74
2021/09/27 00:12:02;;;;;;;30.58;19.95;;;;;;;15.86;94.01;100631.59;20661450;28;20046;-75
2021/09/27 00:22:05;;;;;;;30.83;20.20;;;;;;;15.72;94.69;100639.97;20643732;28;20062;-74
2021/09/27 00:32:07;;;;;;;31.30;19.98;;;;;;;15.78;94.61;100633.59;20660298;28;20050;-75
2021/09/27 00:42:09;;;;;;;26.42;19.33;;;;;;;15.86;94.36;100632.44;20642215;28;20058;-74
2021/09/27 00:52:11;;;;;;;29.73;19.60;;;;;;;15.89;93.98;100628.81;20658575;28;20088;-74
2021/09/27 01:02:13;;;;;;;27.90;18.98;;;;;;;15.92;93.96;100610.25;20657428;28;20038;-74
2021/09/27 01:12:33;;;;;;;28.73;19.42;;;;;;;15.79;93.47;100598.34;20657424;28;20058;-74
2021/09/27 01:22:51;;;;;;;27.95;18.67;;;;;;;15.56;94.31;100604.38;20639931;28;20508;-73
2021/09/27 01:32:57;;;;;;;30.13;20.15;;;;;;;15.36;95.08;100594.47;20655158;28;20412;-74
2021/09/27 01:43:14;;;;;;;36.58;21.58;;;;;;;15.27;95.10;100600.03;20638993;28;20399;-75
2021/09/27 01:53:24;;;;;;;34.92;20.88;;;;;;;15.16;95.10;100599.53;20639420;28;20050;-75
2021/09/27 02:03:45;;;;;;;36.63;21.98;;;;;;;15.14;95.09;100592.53;20655859;28;20034;-75
2021/09/27 02:13:53;;;;;;;35.22;21.58;;;;;;;15.03;95.06;100585.84;20656299;28;20113;-75
2021/09/27 02:24:04;;;;;;;33.42;20.58;;;;;;;14.91;95.07;100602.94;20654920;28;20113;-75
2021/09/27 02:34:14;;;;;;;33.67;21.33;;;;;;;14.88;94.67;100608.28;20663683;28;20167;-76
2021/09/27 02:44:16;;;;;;;36.47;22.42;;;;;;;14.80;94.98;100620.81;20686778;28;20050;-75
2021/09/27 02:54:27;;;;;;;37.25;21.33;;;;;;;14.69;95.11;100609.72;20652878;28;20448;-76
2021/09/27 03:04:55;;;;;;;37.65;22.27;;;;;;;14.65;95.00;100616.00;20659976;28;20038;-75
2021/09/27 03:15:00;;;;;;;41.28;22.35;;;;;;;14.56;95.28;100601.31;20668798;28;20562;-76
2021/09/27 03:25:07;;;;;;;35.08;21.73;;;;;;;14.44;95.16;100586.69;20658870;28;20054;-74
2021/09/27 03:35:16;;;;;;;42.65;23.35;;;;;;;14.38;95.67;100587.75;20646738;28;20105;-75
2021/09/27 03:45:25;;;;;;;42.85;24.15;;;;;;;14.36;95.97;100578.13;20669385;28;20117;-74
2021/09/27 03:55:40;;;;;;;37.30;22.48;;;;;;;14.29;95.77;100592.41;20663123;28;20058;-76
2021/09/27 04:05:48;;;;;;;;;;;;;;;14.24;95.15;100587.25;20662761;28;20042;-75
2021/09/27 04:15:56;;;;;;;37.80;21.25;;;;;;;14.09;95.59;100600.84;20662572;28;19957;-74
2021/09/27 04:26:08;;;;;;;39.17;22.42;;;;;;;14.04;95.42;100592.22;20661312;28;20042;-75
2021/09/27 04:36:25;;;;;;;42.80;23.55;;;;;;;14.02;95.41;100605.41;20642404;28;20050;-75
2021/09/27 04:47:08;;;;;;;43.22;22.98;;;;;;;13.94;95.77;100588.97;20658882;28;20051;-75
2021/09/27 04:57:27;;;;;;;41.20;23.23;;;;;;;13.90;95.93;100600.47;20640728;23;20094;-71
2021/09/27 05:07:47;;;;;;;44.05;23.98;;;;;;;13.84;95.97;100611.16;20522385;28;20043;-72
2021/09/27 05:18:18;;;;;;;42.90;22.70;;;;;;;13.76;95.52;100603.47;20500714;28;20051;-71
2021/09/27 05:28:41;;;;;;;38.03;22.08;;;;;;;13.73;95.41;100613.19;20500471;28;20055;-72
2021/09/27 05:38:52;;;;;;;44.08;23.38;;;;;;;13.86;95.46;100620.75;20498387;28;20044;-72
2021/09/27 05:49:06;;;;;;;47.13;24.35;;;;;;;14.24;94.52;100612.75;20498576;28;20107;-73
2021/09/27 05:59:20;;;;;;;43.90;24.73;;;;;;;14.40;94.04;100614.03;20498031;28;20047;-70
2021/09/27 06:09:53;;;;;;;41.50;23.45;;;;;;;14.53;94.20;100601.41;20496120;28;20094;-69
2021/09/27 06:20:12;;;;;;;37.40;22.40;;;;;;;14.65;94.39;100592.28;20502486;28;20059;-70
2021/09/27 06:30:19;;;;;;;42.30;23.55;;;;;;;14.77;93.48;100598.06;20496253;28;20051;-69
2021/09/27 06:40:21;;;;;;;41.38;24.38;;;;;;;14.80;93.80;100607.63;20506246;28;20102;-70
2021/09/27 06:50:23;;;;;;;40.75;23.83;;;;;;;15.03;93.34;100609.59;20512645;28;20050;-71
2021/09/27 07:00:26;;;;;;;38.05;22.48;;;;;;;15.39;92.42;100603.16;20510529;28;20106;-70
2021/09/27 07:10:28;;;;;;;37.53;22.10;;;;;;;15.80;91.36;100592.16;20488446;28;20047;-70
2021/09/27 07:20:30;;;;;;;30.52;19.48;;;;;;;16.35;89.89;100588.44;20492849;28;20052;-70
2021/09/27 07:30:33;;;;;;;25.48;15.90;;;;;;;16.87;88.78;100594.44;20426760;29;20044;-70
2021/09/27 07:40:36;;;;;;;21.92;14.93;;;;;;;17.04;87.05;100599.06;20466928;29;20090;-70
2021/09/27 07:50:40;;;;;;;22.38;13.75;;;;;;;17.01;87.33;100598.31;20506377;28;20085;-71
2021/09/27 08:00:42;;;;;;;20.07;13.20;;;;;;;17.34;85.69;100604.06;20503096;28;20047;-70
2021/09/27 08:10:44;;;;;;;20.85;13.75;;;;;;;17.69;84.15;100598.19;20504982;28;20501;-70
2021/09/27 08:20:52;;;;;;;14.80;11.35;;;;;;;18.17;81.15;100585.59;20508019;28;20505;-69
2021/09/27 08:31:04;;;;;;;13.35;10.32;;;;;;;18.26;80.76;100581.69;20482007;28;20051;-68
2021/09/27 08:41:24;;;;;;;14.48;9.90;;;;;;;18.67;80.22;100585.94;20501427;28;20055;-68
2021/09/27 08:51:28;;;;;;;11.52;7.65;;;;;;;18.99;77.07;100588.91;20501323;28;20043;-69
2021/09/27 09:01:54;;;;;;;12.23;8.00;;;;;;;19.15;75.05;100589.88;20456939;28;20111;-69
2021/09/27 09:12:04;;;;;;;9.85;6.80;;;;;;;19.12;74.95;100582.09;20419146;29;20314;-71
2021/09/27 09:22:19;;;;;;;9.80;7.05;;;;;;;19.38;75.00;100582.63;20497878;28;20063;-68
2021/09/27 09:32:25;;;;;;;10.23;6.60;;;;;;;19.50;73.66;100574.06;20497885;28;20412;-69
2021/09/27 09:42:33;;;;;;;11.63;7.13;;;;;;;19.78;73.10;100573.53;20500020;28;20106;-70
2021/09/27 09:52:40;;;;;;;9.68;6.47;;;;;;;20.03;72.69;100570.47;20497406;28;20110;-69
2021/09/27 10:02:44;;;;;;;9.45;5.57;;;;;;;20.38;70.79;100567.75;20512765;28;20098;-70
2021/09/27 10:12:50;;;;;;;7.63;5.00;;;;;;;20.60;69.94;100557.72;20511147;28;20047;-69
2021/09/27 10:22:58;;;;;;;8.52;4.90;;;;;;;20.93;67.12;100560.28;20494989;29;20047;-69
2021/09/27 10:33:08;;;;;;;7.25;4.07;;;;;;;20.74;66.21;100549.81;20511112;28;20055;-69
2021/09/27 10:43:13;;;;;;;7.00;4.00;;;;;;;21.43;64.67;100558.38;20513064;29;20398;-69
2021/09/27 10:53:24;;;;;;;6.35;3.45;;;;;;;21.50;62.43;100549.06;20508726;28;20043;-70
2021/09/27 11:03:31;;;;;;;6.40;3.50;;;;;;;21.80;60.48;100542.84;20509607;28;20452;-69
2021/09/27 11:13:42;;;;;;;6.40;3.38;;;;;;;21.98;61.09;100531.09;20507912;28;20493;-71
2021/09/27 11:23:45;;;;;;;6.50;3.92;;;;;;;22.48;62.40;100540.47;20508009;28;20310;-69
2021/09/27 11:33:54;;;;;;;5.13;3.40;;;;;;;22.69;59.40;100525.75;20507557;28;20386;-69
2021/09/27 11:44:08;;;;;;;5.00;3.30;;;;;;;22.63;59.86;100520.81;20508953;28;20552;-69
2021/09/27 11:54:30;;;;;;;5.17;3.57;;;;;;;22.78;59.88;100519.81;20506362;28;20106;-69
2021/09/27 12:05:00;;;;;;;5.32;2.90;;;;;;;22.90;57.99;100515.56;20504175;28;20066;-69
2021/09/27 12:15:05;;;;;;;4.30;2.75;;;;;;;23.05;57.54;100492.31;20461929;29;20047;-69
2021/09/27 12:25:12;;;;;;;5.20;3.05;;;;;;;23.30;57.80;100495.06;20423942;29;20103;-69
2021/09/27 12:35:35;;;;;;;5.95;3.25;;;;;;;23.19;56.75;100483.41;20422992;29;20071;-69
2021/09/27 12:45:54;;;;;;;5.22;2.60;;;;;;;23.56;54.79;100473.72;20422611;29;20048;-69
2021/09/27 12:55:57;;;;;;;6.13;2.70;;;;;;;23.27;55.50;100463.19;20421158;29;20087;-70
2021/09/27 13:05:59;;;;;;;4.53;2.50;;;;;;;23.45;54.93;100468.25;20419184;29;20047;-70
2021/09/27 13:16:17;;;;;;;5.72;2.72;;;;;;;22.97;56.75;100475.94;20469661;28;20079;-68
2021/09/27 13:26:48;;;;;;;5.03;3.20;;;;;;;22.90;57.20;100469.28;20500815;28;20047;-69
2021/09/27 13:36:52;;;;;;;6.47;3.45;;;;;;;22.77;57.64;100467.41;20497113;28;20098;-68
2021/09/27 13:46:54;;;;;;;5.45;3.55;;;;;;;22.71;58.47;100481.16;20470304;29;20518;-68
2021/09/27 13:56:55;;;;;;;6.03;3.20;;;;;;;22.62;59.52;100488.91;20418714;29;20177;-68
2021/09/27 14:06:57;;;;;;;5.15;3.47;;;;;;;22.38;59.80;100500.19;20404740;29;20035;-68
2021/09/27 14:16:59;;;;;;;7.63;4.80;;;;;;;22.22;60.99;100505.59;20439075;29;20517;-68
2021/09/27 14:27:02;;;;;;;5.22;3.50;;;;;;;22.21;61.65;100497.69;20417202;29;20135;-68
2021/09/27 14:37:04;;;;;;;7.05;3.65;;;;;;;22.08;61.94;100494.91;20417594;29;20080;-68
2021/09/27 14:47:05;;;;;;;7.15;3.72;;;;;;;21.86;62.66;100494.53;20429036;29;20507;-68
2021/09/27 14:57:09;;;;;;;5.55;3.38;;;;;;;21.70;64.89;100487.47;20428364;29;20127;-68
2021/09/27 15:07:11;;;;;;;5.30;3.28;;;;;;;21.69;65.47;100491.06;20426801;29;20083;-68
2021/09/27 15:17:12;;;;;;;6.00;3.30;;;;;;;21.67;64.95;100492.97;20486025;28;20043;-68
2021/09/27 15:27:14;;;;;;;5.55;3.08;;;;;;;21.51;64.91;100503.69;20507000;28;20115;-68
2021/09/27 15:37:24;;;;;;;7.03;3.80;;;;;;;21.57;64.88;100513.13;20505553;28;20043;-68
2021/09/27 15:47:26;;;;;;;6.20;3.80;;;;;;;21.89;65.12;100515.66;20506652;28;20051;-70
2021/09/27 15:57:28;;;;;;;8.55;3.33;;;;;;;22.18;63.02;100516.56;20505034;28;20055;-71
2021/09/27 16:07:29;;;;;;;5.05;2.88;;;;;;;22.00;63.74;100515.88;20503881;28;20055;-70
2021/09/27 16:17:31;;;;;;;6.93;3.30;;;;;;;21.78;64.63;100521.63;20443638;29;20051;-70
2021/09/27 16:27:33;;;;;;;5.32;2.90;;;;;;;21.57;66.06;100528.25;20423650;29;20418;-70
2021/09/27 16:37:35;;;;;;;8.10;3.17;;;;;;;21.25;67.52;100534.47;20422656;29;20051;-70
2021/09/27 16:47:36;;;;;;;5.90;3.40;;;;;;;20.99;69.43;100548.44;20423546;29;20055;-70
2021/09/27 16:57:38;;;;;;;6.10;3.90;;;;;;;20.69;71.10;100561.63;20421123;29;20047;-70
2021/09/27 17:07:40;;;;;;;10.30;5.53;;;;;;;20.39;73.46;100574.78;20420104;29;20044;-70
2021/09/27 17:17:51;;;;;;;7.60;3.60;;;;;;;20.07;75.43;100589.75;20483183;28;20051;-70
2021/09/27 17:27:56;;;;;;;9.15;4.65;;;;;;;19.87;76.13;100582.81;20498609;28;20063;-70
2021/09/27 17:38:02;;;;;;;7.20;4.45;;;;;;;19.69;77.44;100590.81;20497719;28;20047;-71
2021/09/27 17:48:04;;;;;;;8.23;4.38;;;;;;;19.36;79.32;100606.59;20498555;28;20122;-70
2021/09/27 17:58:08;;;;;;;7.78;4.60;;;;;;;19.14;80.17;100593.50;20497573;28;20464;-70
2021/09/27 18:08:10;;;;;;;6.97;4.78;;;;;;;19.03;80.82;100601.13;20496123;28;20047;-71
2021/09/27 18:18:17;;;;;;;7.20;4.53;;;;;;;18.87;80.90;100611.56;20436363;29;20165;-70
2021/09/27 18:28:21;;;;;;;6.30;4.40;;;;;;;18.84;81.09;100600.25;20432559;29;20056;-70
2021/09/27 18:38:23;;;;;;;7.05;4.20;;;;;;;18.82;80.05;100612.72;20431042;29;20593;-71
2021/09/27 18:48:25;;;;;;;7.28;5.00;;;;;;;18.51;80.94;100615.91;20432273;29;20185;-70
2021/09/27 18:58:28;;;;;;;8.98;5.30;;;;;;;18.32;82.46;100629.97;20431073;29;20406;-70
2021/09/27 19:08:30;;;;;;;9.45;5.93;;;;;;;18.15;82.19;100621.88;20429632;29;20048;-70
2021/09/27 19:18:32;;;;;;;6.97;5.25;;;;;;;18.09;82.57;100630.97;20498353;28;20493;-70
2021/09/27 19:28:36;;;;;;;8.75;5.35;;;;;;;18.04;83.29;100640.91;20508629;28;20055;-70
2021/09/27 19:38:38;;;;;;;8.90;5.90;;;;;;;18.16;82.89;100645.69;20506426;28;20039;-70
2021/09/27 19:48:40;;;;;;;8.40;5.22;;;;;;;18.26;82.21;100650.59;20506851;28;20051;-70
2021/09/27 19:58:42;;;;;;;10.02;5.78;;;;;;;18.34;81.84;100664.34;20505555;28;20055;-70
2021/09/27 20:08:44;;;;;;;9.65;5.40;;;;;;;18.30;82.47;100678.66;20503440;28;20051;-70
2021/09/27 20:18:45;;;;;;;8.13;4.68;;;;;;;18.22;82.74;100686.09;20432394;29;20106;-70
2021/09/27 20:28:47;;;;;;;6.78;4.72;;;;;;;18.13;83.63;100690.00;20423125;29;20494;-70
2021/09/27 20:38:49;;;;;;;10.50;4.65;;;;;;;18.06;83.74;100712.38;20436990;28;20047;-69
2021/09/27 20:48:51;;;;;;;8.88;5.10;;;;;;;18.10;83.61;100730.72;20426294;29;20052;-69
2021/09/27 20:58:53;;;;;;;9.57;4.82;;;;;;;18.04;83.01;100759.28;20419756;29;20166;-69
2021/09/27 21:08:56;;;;;;;6.82;3.70;;;;;;;18.02;81.90;100788.50;20419060;29;20044;-69
2021/09/27 21:19:00;;;;;;;8.03;3.53;;;;;;;17.81;83.61;100810.53;20492022;28;20106;-69
2021/09/27 21:29:04;;;;;;;8.07;2.20;;;;;;;17.42;83.59;100821.69;20497050;28;20133;-69
2021/09/27 21:39:15;;;;;;;2.33;1.00;;;;;;;17.18;82.20;100849.91;20494754;28;20075;-69
2021/09/27 21:49:18;;;;;;;3.00;0.75;;;;;;;17.03;79.93;100890.16;20654438;23;20086;-83
2021/09/27 21:59:20;;;;;;;1.10;0.55;;;;;;;16.69;81.55;100925.63;20648227;28;20048;-81
2021/09/27 22:09:25;;;;;;;2.10;0.70;;;;;;;16.07;83.71;100937.25;20645937;28;20038;-81
2021/09/27 22:19:27;;;;;;;4.55;0.65;;;;;;;15.81;84.59;100952.97;20667760;28;20046;-81
2021/09/27 22:29:29;;;;;;;2.42;0.70;;;;;;;15.58;88.43;100970.31;20681868;28;20050;-81
2021/09/27 22:39:31;;;;;;;2.53;0.80;;;;;;;15.65;88.52;101006.19;20662378;28;20047;-82
2021/09/27 22:49:33;;;;;;;3.20;0.80;;;;;;;15.74;87.68;101043.84;20657470;28;20109;-82
2021/09/27 22:59:35;;;;;;;3.80;0.70;;;;;;;15.77;84.35;101059.59;20644814;28;20042;-82
2021/09/27 23:09:37;;;;;;;1.25;0.50;;;;;;;15.76;83.59;101078.97;20670733;28;20085;-85
2021/09/27 23:19:39;;;;;;;3.25;0.85;;;;;;;15.64;82.64;101118.00;20684611;28;20046;-84
2021/09/27 23:29:44;;;;;;;2.70;0.85;;;;;;;15.43;83.99;101123.78;20663957;28;20570;-82
2021/09/27 23:39:46;;;;;;;2.33;0.75;;;;;;;15.46;88.18;101154.50;20651022;28;20547;-84
2021/09/27 23:49:48;;;;;;;1.98;0.65;;;;;;;15.21;88.43;101164.75;20656340;28;20459;-82
2021/09/27 23:59:49;;;;;;;2.13;0.80;;;;;;;15.09;88.39;101172.06;20654359;28;20046;-82
